sensor_id;sensor_type;location;lat;lon;timestamp;pressure;altitude;pressure_sealevel;temperature
11849;BMP180;5983;49.966;8.052;2023-06-14T00:00:47;100216.00;;;16.60
11849;BMP180;5983;49.966;8.052;2023-06-14T00:03:14;100220.00;;;16.60
11849;BMP180;5983;49.966;8.052;2023-06-14T00:05:44;100221.00;;;16.50
11849;BMP180;5983;49.966;8.052;2023-06-14T00:08:13;100225.00;;;16.50
11849;BMP180;5983;49.966;8.052;2023-06-14T00:10:41;100220.00;;;16.40
11849;BMP180;5983;49.966;8.052;2023-06-14T00:13:08;100217.00;;;16.40
11849;BMP180;5983;49.966;8.052;2023-06-14T00:15:35;100225.00;;;16.30
11849;BMP180;5983;49.966;8.052;2023-06-14T00:18:04;100222.00;;;16.40
11849;BMP180;5983;49.966;8.052;2023-06-14T00:20:32;100220.00;;;16.40
11849;BMP180;5983;49.966;8.052;2023-06-14T00:23:01;100225.00;;;16.40
11849;BMP180;5983;49.966;8.052;2023-06-14T00:25:28;100220.00;;;16.40
11849;BMP180;5983;49.966;8.052;2023-06-14T00:27:56;100217.00;;;16.40
11849;BMP180;5983;49.966;8.052;2023-06-14T00:30:24;100222.00;;;16.40
11849;BMP180;5983;49.966;8.052;2023-06-14T00:32:56;100221.00;;;16.30
11849;BMP180;5983;49.966;8.052;2023-06-14T00:35:23;100217.00;;;16.30
11849;BMP180;5983;49.966;8.052;2023-06-14T00:37:51;100220.00;;;16.20
11849;BMP180;5983;49.966;8.052;2023-06-14T00:40:19;100223.00;;;16.20
11849;BMP180;5983;49.966;8.052;2023-06-14T00:42:46;100217.00;;;16.20
11849;BMP180;5983;49.966;8.052;2023-06-14T00:45:13;100224.00;;;16.20
11849;BMP180;5983;49.966;8.052;2023-06-14T00:47:42;100215.00;;;16.20
11849;BMP180;5983;49.966;8.052;2023-06-14T00:50:10;100217.00;;;16.20
11849;BMP180;5983;49.966;8.052;2023-06-14T00:52:39;100220.00;;;16.20
11849;BMP180;5983;49.966;8.052;2023-06-14T00:55:07;100221.00;;;16.20
11849;BMP180;5983;49.966;8.052;2023-06-14T00:57:36;100225.00;;;16.20
11849;BMP180;5983;49.966;8.052;2023-06-14T01:00:07;100231.00;;;16.20
11849;BMP180;5983;49.966;8.052;2023-06-14T01:02:36;100229.00;;;16.10
11849;BMP180;5983;49.966;8.052;2023-06-14T01:05:04;100228.00;;;16.10
11849;BMP180;5983;49.966;8.052;2023-06-14T01:07:43;100234.00;;;16.10
11849;BMP180;5983;49.966;8.052;2023-06-14T01:10:34;100229.00;;;16.00
11849;BMP180;5983;49.966;8.052;2023-06-14T01:13:11;100236.00;;;16.00
11849;BMP180;5983;49.966;8.052;2023-06-14T01:15:41;100234.00;;;16.00
11849;BMP180;5983;49.966;8.052;2023-06-14T01:18:10;100232.00;;;15.90
11849;BMP180;5983;49.966;8.052;2023-06-14T01:20:44;100243.00;;;15.90
11849;BMP180;5983;49.966;8.052;2023-06-14T01:23:16;100239.00;;;15.90
11849;BMP180;5983;49.966;8.052;2023-06-14T01:25:43;100239.00;;;15.80
11849;BMP180;5983;49.966;8.052;2023-06-14T01:28:12;100237.00;;;15.80
11849;BMP180;5983;49.966;8.052;2023-06-14T01:30:43;100239.00;;;15.80
11849;BMP180;5983;49.966;8.052;2023-06-14T01:33:12;100243.00;;;15.70
11849;BMP180;5983;49.966;8.052;2023-06-14T01:35:42;100238.00;;;15.60
11849;BMP180;5983;49.966;8.052;2023-06-14T01:38:10;100237.00;;;15.60
11849;BMP180;5983;49.966;8.052;2023-06-14T01:40:39;100235.00;;;15.60
11849;BMP180;5983;49.966;8.052;2023-06-14T01:43:07;100232.00;;;15.60
11849;BMP180;5983;49.966;8.052;2023-06-14T01:45:36;100236.00;;;15.50
11849;BMP180;5983;49.966;8.052;2023-06-14T01:48:04;100222.00;;;15.50
11849;BMP180;5983;49.966;8.052;2023-06-14T01:50:32;100233.00;;;15.50
11849;BMP180;5983;49.966;8.052;2023-06-14T01:52:59;100240.00;;;15.50
11849;BMP180;5983;49.966;8.052;2023-06-14T01:55:26;100232.00;;;15.40
11849;BMP180;5983;49.966;8.052;2023-06-14T01:57:55;100238.00;;;15.40
11849;BMP180;5983;49.966;8.052;2023-06-14T02:00:22;100233.00;;;15.40
11849;BMP180;5983;49.966;8.052;2023-06-14T02:02:48;100229.00;;;15.30
11849;BMP180;5983;49.966;8.052;2023-06-14T02:05:15;100233.00;;;15.30
11849;BMP180;5983;49.966;8.052;2023-06-14T02:07:44;100237.00;;;15.30
11849;BMP180;5983;49.966;8.052;2023-06-14T02:10:13;100228.00;;;15.30
11849;BMP180;5983;49.966;8.052;2023-06-14T02:12:41;100240.00;;;15.30
11849;BMP180;5983;49.966;8.052;2023-06-14T02:15:10;100238.00;;;15.30
11849;BMP180;5983;49.966;8.052;2023-06-14T02:17:42;100239.00;;;15.20
11849;BMP180;5983;49.966;8.052;2023-06-14T02:20:10;100244.00;;;15.30
11849;BMP180;5983;49.966;8.052;2023-06-14T02:22:37;100244.00;;;15.30
11849;BMP180;5983;49.966;8.052;2023-06-14T02:25:05;100248.00;;;15.20
11849;BMP180;5983;49.966;8.052;2023-06-14T02:27:33;100243.00;;;15.20
11849;BMP180;5983;49.966;8.052;2023-06-14T02:30:00;100245.00;;;15.10
11849;BMP180;5983;49.966;8.052;2023-06-14T02:32:28;100241.00;;;15.00
11849;BMP180;5983;49.966;8.052;2023-06-14T02:34:55;100248.00;;;15.00
11849;BMP180;5983;49.966;8.052;2023-06-14T02:37:22;100245.00;;;14.90
11849;BMP180;5983;49.966;8.052;2023-06-14T02:39:49;100242.00;;;14.80
11849;BMP180;5983;49.966;8.052;2023-06-14T02:42:16;100247.00;;;14.80
11849;BMP180;5983;49.966;8.052;2023-06-14T02:44:43;100249.00;;;14.80
11849;BMP180;5983;49.966;8.052;2023-06-14T02:47:12;100241.00;;;14.70
11849;BMP180;5983;49.966;8.052;2023-06-14T02:49:40;100249.00;;;14.70
11849;BMP180;5983;49.966;8.052;2023-06-14T02:52:07;100242.00;;;14.70
11849;BMP180;5983;49.966;8.052;2023-06-14T02:54:35;100249.00;;;14.70
11849;BMP180;5983;49.966;8.052;2023-06-14T02:57:03;100245.00;;;14.70
11849;BMP180;5983;49.966;8.052;2023-06-14T02:59:32;100245.00;;;14.70
11849;BMP180;5983;49.966;8.052;2023-06-14T03:01:59;100246.00;;;14.70
11849;BMP180;5983;49.966;8.052;2023-06-14T03:04:26;100249.00;;;14.70
11849;BMP180;5983;49.966;8.052;2023-06-14T03:06:55;100252.00;;;14.70
11849;BMP180;5983;49.966;8.052;2023-06-14T03:09:23;100251.00;;;14.70
11849;BMP180;5983;49.966;8.052;2023-06-14T03:11:50;100258.00;;;14.60
11849;BMP180;5983;49.966;8.052;2023-06-14T03:14:17;100262.00;;;14.50
11849;BMP180;5983;49.966;8.052;2023-06-14T03:16:44;100263.00;;;14.60
11849;BMP180;5983;49.966;8.052;2023-06-14T03:19:11;100264.00;;;14.50
11849;BMP180;5983;49.966;8.052;2023-06-14T03:21:38;100265.00;;;14.50
11849;BMP180;5983;49.966;8.052;2023-06-14T03:24:10;100268.00;;;14.40
11849;BMP180;5983;49.966;8.052;2023-06-14T03:26:37;100261.00;;;14.40
11849;BMP180;5983;49.966;8.052;2023-06-14T03:29:04;100270.00;;;14.40
11849;BMP180;5983;49.966;8.052;2023-06-14T03:31:31;100261.00;;;14.40
11849;BMP180;5983;49.966;8.052;2023-06-14T03:33:59;100278.00;;;14.40
11849;BMP180;5983;49.966;8.052;2023-06-14T03:36:26;100273.00;;;14.30
11849;BMP180;5983;49.966;8.052;2023-06-14T03:38:54;100279.00;;;14.30
11849;BMP180;5983;49.966;8.052;2023-06-14T03:41:22;100274.00;;;14.40
11849;BMP180;5983;49.966;8.052;2023-06-14T03:43:49;100287.00;;;14.40
11849;BMP180;5983;49.966;8.052;2023-06-14T03:46:16;100286.00;;;14.40
11849;BMP180;5983;49.966;8.052;2023-06-14T03:48:43;100297.00;;;14.40
11849;BMP180;5983;49.966;8.052;2023-06-14T03:51:10;100293.00;;;14.50
11849;BMP180;5983;49.966;8.052;2023-06-14T03:53:37;100291.00;;;14.50
11849;BMP180;5983;49.966;8.052;2023-06-14T03:56:04;100290.00;;;14.60
11849;BMP180;5983;49.966;8.052;2023-06-14T03:58:34;100297.00;;;14.60
11849;BMP180;5983;49.966;8.052;2023-06-14T04:01:01;100297.00;;;14.60
11849;BMP180;5983;49.966;8.052;2023-06-14T04:03:28;100291.00;;;14.60
11849;BMP180;5983;49.966;8.052;2023-06-14T04:05:55;100295.00;;;14.60
11849;BMP180;5983;49.966;8.052;2023-06-14T04:08:25;100305.00;;;14.60
11849;BMP180;5983;49.966;8.052;2023-06-14T04:10:52;100305.00;;;14.60
11849;BMP180;5983;49.966;8.052;2023-06-14T04:13:19;100306.00;;;14.60
11849;BMP180;5983;49.966;8.052;2023-06-14T04:15:47;100305.00;;;14.70
11849;BMP180;5983;49.966;8.052;2023-06-14T04:18:14;100309.00;;;14.80
11849;BMP180;5983;49.966;8.052;2023-06-14T04:20:41;100314.00;;;14.80
11849;BMP180;5983;49.966;8.052;2023-06-14T04:23:13;100301.00;;;14.80
11849;BMP180;5983;49.966;8.052;2023-06-14T04:25:41;100318.00;;;14.90
11849;BMP180;5983;49.966;8.052;2023-06-14T04:28:10;100315.00;;;14.90
11849;BMP180;5983;49.966;8.052;2023-06-14T04:30:37;100308.00;;;14.90
11849;BMP180;5983;49.966;8.052;2023-06-14T04:33:07;100314.00;;;15.00
11849;BMP180;5983;49.966;8.052;2023-06-14T04:35:36;100314.00;;;15.10
11849;BMP180;5983;49.966;8.052;2023-06-14T04:38:03;100320.00;;;15.20
11849;BMP180;5983;49.966;8.052;2023-06-14T04:40:35;100317.00;;;15.40
11849;BMP180;5983;49.966;8.052;2023-06-14T04:43:08;100320.00;;;15.40
11849;BMP180;5983;49.966;8.052;2023-06-14T04:45:38;100309.00;;;15.40
11849;BMP180;5983;49.966;8.052;2023-06-14T04:48:07;100333.00;;;15.50
11849;BMP180;5983;49.966;8.052;2023-06-14T04:50:34;100331.00;;;15.50
11849;BMP180;5983;49.966;8.052;2023-06-14T04:53:01;100330.00;;;15.60
11849;BMP180;5983;49.966;8.052;2023-06-14T04:55:29;100331.00;;;15.60
11849;BMP180;5983;49.966;8.052;2023-06-14T04:57:56;100332.00;;;15.70
11849;BMP180;5983;49.966;8.052;2023-06-14T05:00:23;100332.00;;;15.80
11849;BMP180;5983;49.966;8.052;2023-06-14T05:02:50;100342.00;;;15.90
11849;BMP180;5983;49.966;8.052;2023-06-14T05:05:20;100339.00;;;16.00
11849;BMP180;5983;49.966;8.052;2023-06-14T05:07:47;100342.00;;;16.10
11849;BMP180;5983;49.966;8.052;2023-06-14T05:10:14;100345.00;;;16.30
11849;BMP180;5983;49.966;8.052;2023-06-14T05:12:41;100350.00;;;16.40
11849;BMP180;5983;49.966;8.052;2023-06-14T05:15:10;100355.00;;;16.50
11849;BMP180;5983;49.966;8.052;2023-06-14T05:17:37;100348.00;;;16.60
11849;BMP180;5983;49.966;8.052;2023-06-14T05:20:07;100341.00;;;16.70
11849;BMP180;5983;49.966;8.052;2023-06-14T05:22:38;100340.00;;;16.80
11849;BMP180;5983;49.966;8.052;2023-06-14T05:25:05;100350.00;;;16.90
11849;BMP180;5983;49.966;8.052;2023-06-14T05:27:32;100346.00;;;17.10
11849;BMP180;5983;49.966;8.052;2023-06-14T05:30:01;100340.00;;;17.20
11849;BMP180;5983;49.966;8.052;2023-06-14T05:32:29;100345.00;;;17.30
11849;BMP180;5983;49.966;8.052;2023-06-14T05:34:57;100349.00;;;17.50
11849;BMP180;5983;49.966;8.052;2023-06-14T05:37:23;100342.00;;;17.60
11849;BMP180;5983;49.966;8.052;2023-06-14T05:39:52;100361.00;;;17.90
11849;BMP180;5983;49.966;8.052;2023-06-14T05:42:19;100361.00;;;18.00
11849;BMP180;5983;49.966;8.052;2023-06-14T05:44:46;100365.00;;;18.20
11849;BMP180;5983;49.966;8.052;2023-06-14T05:47:13;100363.00;;;18.30
11849;BMP180;5983;49.966;8.052;2023-06-14T05:49:40;100374.00;;;18.40
11849;BMP180;5983;49.966;8.052;2023-06-14T05:52:08;100369.00;;;18.50
11849;BMP180;5983;49.966;8.052;2023-06-14T05:54:35;100371.00;;;18.70
11849;BMP180;5983;49.966;8.052;2023-06-14T05:57:04;100378.00;;;18.80
11849;BMP180;5983;49.966;8.052;2023-06-14T05:59:32;100378.00;;;18.90
11849;BMP180;5983;49.966;8.052;2023-06-14T06:01:59;100376.00;;;19.00
11849;BMP180;5983;49.966;8.052;2023-06-14T06:04:26;100376.00;;;19.20
11849;BMP180;5983;49.966;8.052;2023-06-14T06:06:53;100385.00;;;19.30
11849;BMP180;5983;49.966;8.052;2023-06-14T06:09:20;100388.00;;;19.40
11849;BMP180;5983;49.966;8.052;2023-06-14T06:11:47;100394.00;;;19.50
11849;BMP180;5983;49.966;8.052;2023-06-14T06:14:15;100396.00;;;19.60
11849;BMP180;5983;49.966;8.052;2023-06-14T06:16:42;100381.00;;;19.70
11849;BMP180;5983;49.966;8.052;2023-06-14T06:19:09;100387.00;;;19.80
11849;BMP180;5983;49.966;8.052;2023-06-14T06:21:36;100385.00;;;19.80
11849;BMP180;5983;49.966;8.052;2023-06-14T06:24:04;100394.00;;;19.90
11849;BMP180;5983;49.966;8.052;2023-06-14T06:26:31;100382.00;;;20.00
11849;BMP180;5983;49.966;8.052;2023-06-14T06:28:58;100399.00;;;20.10
11849;BMP180;5983;49.966;8.052;2023-06-14T06:31:27;100396.00;;;20.20
11849;BMP180;5983;49.966;8.052;2023-06-14T06:33:54;100406.00;;;20.30
11849;BMP180;5983;49.966;8.052;2023-06-14T06:36:21;100398.00;;;20.40
11849;BMP180;5983;49.966;8.052;2023-06-14T06:38:48;100407.00;;;20.50
11849;BMP180;5983;49.966;8.052;2023-06-14T06:41:15;100413.00;;;20.60
11849;BMP180;5983;49.966;8.052;2023-06-14T06:43:42;100409.00;;;20.60
11849;BMP180;5983;49.966;8.052;2023-06-14T06:46:08;100413.00;;;20.70
11849;BMP180;5983;49.966;8.052;2023-06-14T06:48:37;100419.00;;;20.80
11849;BMP180;5983;49.966;8.052;2023-06-14T06:51:04;100406.00;;;20.80
11849;BMP180;5983;49.966;8.052;2023-06-14T06:53:31;100424.00;;;20.90
11849;BMP180;5983;49.966;8.052;2023-06-14T06:55:58;100426.00;;;20.80
11849;BMP180;5983;49.966;8.052;2023-06-14T06:58:24;100430.00;;;20.90
11849;BMP180;5983;49.966;8.052;2023-06-14T07:00:51;100432.00;;;20.90
11849;BMP180;5983;49.966;8.052;2023-06-14T07:03:18;100427.00;;;20.90
11849;BMP180;5983;49.966;8.052;2023-06-14T07:05:46;100433.00;;;20.90
11849;BMP180;5983;49.966;8.052;2023-06-14T07:08:13;100434.00;;;21.00
11849;BMP180;5983;49.966;8.052;2023-06-14T07:10:40;100438.00;;;21.00
11849;BMP180;5983;49.966;8.052;2023-06-14T07:13:07;100443.00;;;21.00
11849;BMP180;5983;49.966;8.052;2023-06-14T07:15:34;100439.00;;;21.00
11849;BMP180;5983;49.966;8.052;2023-06-14T07:18:01;100440.00;;;21.10
11849;BMP180;5983;49.966;8.052;2023-06-14T07:20:28;100441.00;;;21.20
11849;BMP180;5983;49.966;8.052;2023-06-14T07:22:58;100450.00;;;21.40
11849;BMP180;5983;49.966;8.052;2023-06-14T07:25:25;100452.00;;;21.40
11849;BMP180;5983;49.966;8.052;2023-06-14T07:27:52;100461.00;;;21.40
11849;BMP180;5983;49.966;8.052;2023-06-14T07:30:19;100458.00;;;21.50
11849;BMP180;5983;49.966;8.052;2023-06-14T07:32:46;100447.00;;;21.50
11849;BMP180;5983;49.966;8.052;2023-06-14T07:35:13;100458.00;;;21.60
11849;BMP180;5983;49.966;8.052;2023-06-14T07:37:39;100454.00;;;21.50
11849;BMP180;5983;49.966;8.052;2023-06-14T07:40:09;100465.00;;;21.50
11849;BMP180;5983;49.966;8.052;2023-06-14T07:42:37;100454.00;;;21.60
11849;BMP180;5983;49.966;8.052;2023-06-14T07:45:05;100463.00;;;21.60
11849;BMP180;5983;49.966;8.052;2023-06-14T07:47:32;100460.00;;;21.70
11849;BMP180;5983;49.966;8.052;2023-06-14T07:50:00;100462.00;;;21.70
11849;BMP180;5983;49.966;8.052;2023-06-14T07:52:27;100453.00;;;21.70
11849;BMP180;5983;49.966;8.052;2023-06-14T07:54:53;100464.00;;;21.80
11849;BMP180;5983;49.966;8.052;2023-06-14T07:57:22;100457.00;;;21.70
11849;BMP180;5983;49.966;8.052;2023-06-14T07:59:49;100459.00;;;21.70
11849;BMP180;5983;49.966;8.052;2023-06-14T08:02:16;100468.00;;;21.90
11849;BMP180;5983;49.966;8.052;2023-06-14T08:04:43;100463.00;;;22.10
11849;BMP180;5983;49.966;8.052;2023-06-14T08:07:11;100456.00;;;21.90
11849;BMP180;5983;49.966;8.052;2023-06-14T08:09:37;100463.00;;;21.80
11849;BMP180;5983;49.966;8.052;2023-06-14T08:12:05;100464.00;;;22.00
11849;BMP180;5983;49.966;8.052;2023-06-14T08:14:36;100457.00;;;22.00
11849;BMP180;5983;49.966;8.052;2023-06-14T08:17:04;100462.00;;;22.00
11849;BMP180;5983;49.966;8.052;2023-06-14T08:19:31;100458.00;;;22.00
11849;BMP180;5983;49.966;8.052;2023-06-14T08:21:58;100466.00;;;22.10
11849;BMP180;5983;49.966;8.052;2023-06-14T08:24:25;100460.00;;;22.10
11849;BMP180;5983;49.966;8.052;2023-06-14T08:26:53;100452.00;;;22.20
11849;BMP180;5983;49.966;8.052;2023-06-14T08:29:20;100462.00;;;22.40
11849;BMP180;5983;49.966;8.052;2023-06-14T08:31:48;100454.00;;;22.50
11849;BMP180;5983;49.966;8.052;2023-06-14T08:34:15;100451.00;;;22.60
11849;BMP180;5983;49.966;8.052;2023-06-14T08:36:42;100459.00;;;22.60
11849;BMP180;5983;49.966;8.052;2023-06-14T08:39:09;100457.00;;;22.70
11849;BMP180;5983;49.966;8.052;2023-06-14T08:41:37;100459.00;;;22.80
11849;BMP180;5983;49.966;8.052;2023-06-14T08:44:04;100451.00;;;22.80
11849;BMP180;5983;49.966;8.052;2023-06-14T08:46:33;100456.00;;;22.80
11849;BMP180;5983;49.966;8.052;2023-06-14T08:49:02;100465.00;;;22.80
11849;BMP180;5983;49.966;8.052;2023-06-14T08:51:31;100461.00;;;22.80
11849;BMP180;5983;49.966;8.052;2023-06-14T08:54:00;100456.00;;;23.00
11849;BMP180;5983;49.966;8.052;2023-06-14T08:56:30;100467.00;;;23.00
11849;BMP180;5983;49.966;8.052;2023-06-14T08:58:58;100456.00;;;23.10
11849;BMP180;5983;49.966;8.052;2023-06-14T09:01:28;100463.00;;;23.30
11849;BMP180;5983;49.966;8.052;2023-06-14T09:03:57;100469.00;;;23.40
11849;BMP180;5983;49.966;8.052;2023-06-14T09:06:26;100460.00;;;23.50
11849;BMP180;5983;49.966;8.052;2023-06-14T09:08:55;100460.00;;;23.70
11849;BMP180;5983;49.966;8.052;2023-06-14T09:11:23;100467.00;;;23.80
11849;BMP180;5983;49.966;8.052;2023-06-14T09:13:51;100456.00;;;23.70
11849;BMP180;5983;49.966;8.052;2023-06-14T09:16:18;100455.00;;;23.80
11849;BMP180;5983;49.966;8.052;2023-06-14T09:18:47;100455.00;;;23.70
11849;BMP180;5983;49.966;8.052;2023-06-14T09:21:15;100467.00;;;23.80
11849;BMP180;5983;49.966;8.052;2023-06-14T09:23:46;100464.00;;;23.90
11849;BMP180;5983;49.966;8.052;2023-06-14T09:26:16;100466.00;;;23.90
11849;BMP180;5983;49.966;8.052;2023-06-14T09:28:44;100464.00;;;23.90
11849;BMP180;5983;49.966;8.052;2023-06-14T09:31:12;100464.00;;;24.00
11849;BMP180;5983;49.966;8.052;2023-06-14T09:33:42;100477.00;;;24.10
11849;BMP180;5983;49.966;8.052;2023-06-14T09:36:16;100473.00;;;24.30
11849;BMP180;5983;49.966;8.052;2023-06-14T09:38:53;100474.00;;;24.50
11849;BMP180;5983;49.966;8.052;2023-06-14T09:41:21;100479.00;;;24.70
11849;BMP180;5983;49.966;8.052;2023-06-14T09:43:49;100494.00;;;24.80
11849;BMP180;5983;49.966;8.052;2023-06-14T09:46:16;100483.00;;;24.70
11849;BMP180;5983;49.966;8.052;2023-06-14T09:48:43;100476.00;;;24.80
11849;BMP180;5983;49.966;8.052;2023-06-14T09:51:15;100478.00;;;24.60
11849;BMP180;5983;49.966;8.052;2023-06-14T09:53:45;100487.00;;;24.40
11849;BMP180;5983;49.966;8.052;2023-06-14T09:56:20;100479.00;;;24.40
11849;BMP180;5983;49.966;8.052;2023-06-14T09:58:54;100475.00;;;24.50
11849;BMP180;5983;49.966;8.052;2023-06-14T10:01:21;100473.00;;;24.60
11849;BMP180;5983;49.966;8.052;2023-06-14T10:03:55;100474.00;;;24.80
11849;BMP180;5983;49.966;8.052;2023-06-14T10:06:23;100476.00;;;24.70
11849;BMP180;5983;49.966;8.052;2023-06-14T10:08:55;100484.00;;;24.70
11849;BMP180;5983;49.966;8.052;2023-06-14T10:11:26;100476.00;;;24.80
11849;BMP180;5983;49.966;8.052;2023-06-14T10:13:54;100474.00;;;25.00
11849;BMP180;5983;49.966;8.052;2023-06-14T10:16:30;100480.00;;;25.10
11849;BMP180;5983;49.966;8.052;2023-06-14T10:19:07;100491.00;;;24.90
11849;BMP180;5983;49.966;8.052;2023-06-14T10:21:43;100486.00;;;25.00
11849;BMP180;5983;49.966;8.052;2023-06-14T10:24:17;100480.00;;;25.20
11849;BMP180;5983;49.966;8.052;2023-06-14T10:26:54;100475.00;;;25.40
11849;BMP180;5983;49.966;8.052;2023-06-14T10:29:21;100479.00;;;25.40
11849;BMP180;5983;49.966;8.052;2023-06-14T10:31:49;100483.00;;;25.20
11849;BMP180;5983;49.966;8.052;2023-06-14T10:34:24;100477.00;;;25.20
11849;BMP180;5983;49.966;8.052;2023-06-14T10:37:03;100477.00;;;25.50
11849;BMP180;5983;49.966;8.052;2023-06-14T10:39:31;100488.00;;;25.80
11849;BMP180;5983;49.966;8.052;2023-06-14T10:42:02;100482.00;;;25.70
11849;BMP180;5983;49.966;8.052;2023-06-14T10:44:39;100488.00;;;25.90
11849;BMP180;5983;49.966;8.052;2023-06-14T10:47:20;100481.00;;;25.80
11849;BMP180;5983;49.966;8.052;2023-06-14T10:49:51;100487.00;;;25.90
11849;BMP180;5983;49.966;8.052;2023-06-14T10:52:23;100493.00;;;25.90
11849;BMP180;5983;49.966;8.052;2023-06-14T10:55:09;100503.00;;;25.60
11849;BMP180;5983;49.966;8.052;2023-06-14T10:57:41;100495.00;;;25.30
11849;BMP180;5983;49.966;8.052;2023-06-14T11:00:12;100495.00;;;25.40
11849;BMP180;5983;49.966;8.052;2023-06-14T11:03:36;100502.00;;;25.50
11849;BMP180;5983;49.966;8.052;2023-06-14T11:06:15;100502.00;;;25.60
11849;BMP180;5983;49.966;8.052;2023-06-14T11:12:01;100488.00;;;25.50
11849;BMP180;5983;49.966;8.052;2023-06-14T11:14:31;100506.00;;;25.50
11849;BMP180;5983;49.966;8.052;2023-06-14T11:16:59;100495.00;;;25.60
11849;BMP180;5983;49.966;8.052;2023-06-14T11:19:26;100489.00;;;25.70
11849;BMP180;5983;49.966;8.052;2023-06-14T11:21:54;100488.00;;;25.80
11849;BMP180;5983;49.966;8.052;2023-06-14T11:24:21;100507.00;;;25.90
11849;BMP180;5983;49.966;8.052;2023-06-14T11:26:48;100493.00;;;26.00
11849;BMP180;5983;49.966;8.052;2023-06-14T11:29:16;100496.00;;;25.70
11849;BMP180;5983;49.966;8.052;2023-06-14T11:31:45;100499.00;;;25.80
11849;BMP180;5983;49.966;8.052;2023-06-14T11:34:12;100492.00;;;25.80
11849;BMP180;5983;49.966;8.052;2023-06-14T11:36:40;100487.00;;;26.00
11849;BMP180;5983;49.966;8.052;2023-06-14T11:39:07;100501.00;;;26.10
11849;BMP180;5983;49.966;8.052;2023-06-14T11:41:40;100497.00;;;26.20
11849;BMP180;5983;49.966;8.052;2023-06-14T11:44:07;100498.00;;;26.10
11849;BMP180;5983;49.966;8.052;2023-06-14T11:46:35;100489.00;;;26.20
11849;BMP180;5983;49.966;8.052;2023-06-14T11:49:04;100500.00;;;26.20
11849;BMP180;5983;49.966;8.052;2023-06-14T11:51:33;100505.00;;;26.20
11849;BMP180;5983;49.966;8.052;2023-06-14T11:54:02;100490.00;;;26.30
11849;BMP180;5983;49.966;8.052;2023-06-14T11:56:29;100493.00;;;26.40
11849;BMP180;5983;49.966;8.052;2023-06-14T11:58:57;100487.00;;;26.50
11849;BMP180;5983;49.966;8.052;2023-06-14T12:01:24;100498.00;;;26.60
11849;BMP180;5983;49.966;8.052;2023-06-14T12:03:54;100491.00;;;26.60
11849;BMP180;5983;49.966;8.052;2023-06-14T12:06:30;100487.00;;;26.40
11849;BMP180;5983;49.966;8.052;2023-06-14T12:09:04;100496.00;;;26.30
11849;BMP180;5983;49.966;8.052;2023-06-14T12:11:34;100489.00;;;26.20
11849;BMP180;5983;49.966;8.052;2023-06-14T12:14:03;100494.00;;;26.20
11849;BMP180;5983;49.966;8.052;2023-06-14T12:16:31;100499.00;;;25.90
11849;BMP180;5983;49.966;8.052;2023-06-14T12:19:07;100498.00;;;25.80
11849;BMP180;5983;49.966;8.052;2023-06-14T12:21:38;100495.00;;;25.70
11849;BMP180;5983;49.966;8.052;2023-06-14T12:24:06;100496.00;;;25.70
11849;BMP180;5983;49.966;8.052;2023-06-14T12:26:37;100488.00;;;25.80
11849;BMP180;5983;49.966;8.052;2023-06-14T12:29:05;100496.00;;;25.90
11849;BMP180;5983;49.966;8.052;2023-06-14T12:31:32;100487.00;;;26.00
11849;BMP180;5983;49.966;8.052;2023-06-14T12:33:59;100491.00;;;26.10
11849;BMP180;5983;49.966;8.052;2023-06-14T12:36:26;100486.00;;;26.20
11849;BMP180;5983;49.966;8.052;2023-06-14T12:38:55;100493.00;;;26.40
11849;BMP180;5983;49.966;8.052;2023-06-14T12:41:22;100482.00;;;26.30
11849;BMP180;5983;49.966;8.052;2023-06-14T12:43:50;100488.00;;;26.30
11849;BMP180;5983;49.966;8.052;2023-06-14T12:46:17;100486.00;;;26.40
11849;BMP180;5983;49.966;8.052;2023-06-14T12:48:44;100486.00;;;26.50
11849;BMP180;5983;49.966;8.052;2023-06-14T12:51:11;100496.00;;;26.60
11849;BMP180;5983;49.966;8.052;2023-06-14T12:53:38;100492.00;;;26.70
11849;BMP180;5983;49.966;8.052;2023-06-14T12:56:06;100497.00;;;26.80
11849;BMP180;5983;49.966;8.052;2023-06-14T12:58:33;100480.00;;;26.60
11849;BMP180;5983;49.966;8.052;2023-06-14T13:01:00;100487.00;;;26.70
11849;BMP180;5983;49.966;8.052;2023-06-14T13:03:27;100494.00;;;26.90
11849;BMP180;5983;49.966;8.052;2023-06-14T13:05:54;100485.00;;;27.00
11849;BMP180;5983;49.966;8.052;2023-06-14T13:08:21;100480.00;;;27.10
11849;BMP180;5983;49.966;8.052;2023-06-14T13:10:49;100477.00;;;27.00
11849;BMP180;5983;49.966;8.052;2023-06-14T13:13:17;100485.00;;;26.90
11849;BMP180;5983;49.966;8.052;2023-06-14T13:15:44;100493.00;;;26.70
11849;BMP180;5983;49.966;8.052;2023-06-14T13:18:11;100487.00;;;26.80
11849;BMP180;5983;49.966;8.052;2023-06-14T13:20:39;100492.00;;;26.70
11849;BMP180;5983;49.966;8.052;2023-06-14T13:23:06;100492.00;;;26.60
11849;BMP180;5983;49.966;8.052;2023-06-14T13:25:34;100491.00;;;26.60
11849;BMP180;5983;49.966;8.052;2023-06-14T13:28:01;100487.00;;;26.70
11849;BMP180;5983;49.966;8.052;2023-06-14T13:30:29;100491.00;;;26.90
11849;BMP180;5983;49.966;8.052;2023-06-14T13:32:57;100491.00;;;27.10
11849;BMP180;5983;49.966;8.052;2023-06-14T13:35:24;100482.00;;;27.20
11849;BMP180;5983;49.966;8.052;2023-06-14T13:37:52;100488.00;;;27.30
11849;BMP180;5983;49.966;8.052;2023-06-14T13:40:19;100494.00;;;27.40
11849;BMP180;5983;49.966;8.052;2023-06-14T13:42:46;100496.00;;;27.10
11849;BMP180;5983;49.966;8.052;2023-06-14T13:45:15;100498.00;;;26.90
11849;BMP180;5983;49.966;8.052;2023-06-14T13:47:44;100495.00;;;26.90
11849;BMP180;5983;49.966;8.052;2023-06-14T13:50:14;100501.00;;;26.60
11849;BMP180;5983;49.966;8.052;2023-06-14T13:52:41;100494.00;;;26.20
11849;BMP180;5983;49.966;8.052;2023-06-14T13:55:09;100494.00;;;26.30
11849;BMP180;5983;49.966;8.052;2023-06-14T13:57:36;100493.00;;;26.40
11849;BMP180;5983;49.966;8.052;2023-06-14T14:00:04;100504.00;;;26.20
11849;BMP180;5983;49.966;8.052;2023-06-14T14:02:31;100495.00;;;26.10
11849;BMP180;5983;49.966;8.052;2023-06-14T14:04:59;100491.00;;;25.90
11849;BMP180;5983;49.966;8.052;2023-06-14T14:07:26;100488.00;;;26.00
11849;BMP180;5983;49.966;8.052;2023-06-14T14:09:55;100492.00;;;26.20
11849;BMP180;5983;49.966;8.052;2023-06-14T14:12:23;100482.00;;;26.30
11849;BMP180;5983;49.966;8.052;2023-06-14T14:14:50;100492.00;;;26.50
11849;BMP180;5983;49.966;8.052;2023-06-14T14:17:18;100486.00;;;26.50
11849;BMP180;5983;49.966;8.052;2023-06-14T14:19:45;100477.00;;;26.40